This is the latest recevied weather packets stored in our database for station/object E70ARA-3. If no packets are shown the sender has not sent any weather packets the latest 10 day(s).
| Time | Temp. | Humidity | Pressure | Rain* | Wind** | Luminosity | Snow |
|---|---|---|---|---|---|---|---|
| 1776958049 | 17.22° C | 28% | 1027.9 hPa | - | - | - | - |
| 1776957148 | 17.78° C | 28% | 1027.9 hPa | - | - | - | - |
| 1776956248 | 17.78° C | 29% | 1027.9 hPa | - | - | - | - |
| 1776955348 | 17.78° C | 28% | 1028.1 hPa | - | - | - | - |
| 1776954447 | 17.78° C | 29% | 1028.2 hPa | - | - | - | - |
| 1776953547 | 16.67° C | 28% | 1028.3 hPa | - | - | - | - |
| 1776952646 | 17.78° C | 28% | 1028.3 hPa | - | - | - | - |
| 1776951749 | 17.78° C | 26% | 1028.5 hPa | - | - | - | - |
| 1776950849 | 17.22° C | 28% | 1028.7 hPa | - | - | - | - |
| 1776949949 | 18.89° C | 25% | 1028.7 hPa | - | - | - | - |
| 1776949049 | 18.89° C | 24% | 1028.8 hPa | - | - | - | - |
| 1776946348 | 18.89° C | 25% | 1029.6 hPa | - | - | - | - |
| 1776945448 | 20° C | 26% | 1029.8 hPa | - | - | - | - |
| 1776944548 | 18.89° C | 26% | 1029.8 hPa | - | - | - | - |
| 1776943648 | 18.89° C | 25% | 1030 hPa | - | - | - | - |
| 1776942747 | 21.11° C | 23% | 1030 hPa | - | - | - | - |
| 1776941847 | 21.11° C | 21% | 1030.1 hPa | - | - | - | - |
| 1776940947 | 21.67° C | 23% | 1030.5 hPa | - | - | - | - |
| 1776940047 | 22.22° C | 21% | 1030.6 hPa | - | - | - | - |
| 1776939147 | 22.22° C | 21% | 1030.8 hPa | - | - | - | - |
| 1776938247 | 22.22° C | 21% | 1031.1 hPa | - | - | - | - |
| 1776937346 | 21.67° C | 23% | 1031.3 hPa | - | - | - | - |
| 1776936446 | 20° C | 30% | 1031.6 hPa | - | - | - | - |
| 1776935546 | 20° C | 33% | 1032 hPa | - | - | - | - |
| 1776934646 | 20° C | 34% | 1032.3 hPa | - | - | - | - |
* Rain since midnight (hover to see other rain measurements)
** Current wind speed in m/s (hover to see current wind gust speed)